Time;durP1;ratioP1;P1;durP2;ratioP2;P2;SDS_P1;SDS_P2;PMS_P1;PMS_P2;Temp;Humidity;BMP_temperature;BMP_pressure;BME280_temperature;BME280_humidity;BME280_pressure;Samples;Min_cycle;Max_cycle;Signal;HPM_P1;HPM_P2
2022/03/28 00:00:03;;;;;;;;;;;;;;;;;;5053383;28;19965;-47
2022/03/28 00:02:29;;;;;;;;;;;;;;;;;;5053423;28;19909;-47
2022/03/28 00:04:55;;;;;;;;;;;;;;;;;;5053224;28;20417;-46
2022/03/28 00:07:21;;;;;;;;;;;;;;;;;;5053206;28;19912;-47
2022/03/28 00:09:46;;;;;;;;;;;;;;;;;;5053545;28;20274;-46
2022/03/28 00:12:12;;;;;;;;;;;;;;;;;;5053445;28;19959;-47
2022/03/28 00:14:38;;;;;;;;;;;;;;;;;;5053313;28;20025;-60
2022/03/28 00:17:04;;;;;;;;;;;;;;;;;;5053058;28;19911;-60
2022/03/28 00:19:30;;;;;;;;;;;;;;;;;;5052996;28;19905;-60
2022/03/28 00:21:56;;;;;;;;;;;;;;;;;;5052974;28;19959;-60
2022/03/28 00:24:22;;;;;;;;;;;;;;;;;;5052998;28;19908;-60
2022/03/28 00:26:48;;;;;;;;;;;;;;;;;;5052865;28;20424;-60
2022/03/28 00:29:14;;;;;;;;;;;;;;;;;;5052907;28;19909;-60
2022/03/28 00:31:40;;;;;;;;;;;;;;;;;;5052887;28;20260;-60
2022/03/28 00:34:07;;;;;;;;;;;;;;;;;;5052910;28;19904;-60
2022/03/28 00:36:33;;;;;;;;;;;;;;;;;;5052769;28;20382;-60
2022/03/28 00:38:59;;;;;;;;;;;;;;;;;;5052801;28;19904;-60
2022/03/28 00:41:24;;;;;;;;;;;;;;;;;;5052778;28;20000;-60
2022/03/28 00:43:50;;;;;;;;;;;;;;;;;;5052705;28;19905;-59
2022/03/28 00:46:16;;;;;;;;;;;;;;;;;;5052939;28;20000;-60
2022/03/28 00:48:42;;;;;;;;;;;;;;;;;;5052613;28;20394;-60
2022/03/28 00:51:08;;;;;;;;;;;;;;;;;;5052632;28;19940;-60
2022/03/28 00:53:34;;;;;;;;;;;;;;;;;;5052800;28;19912;-60
2022/03/28 00:56:00;;;;;;;;;;;;;;;;;;5052524;28;19912;-60
2022/03/28 00:58:26;;;;;;;;;;;;;;;;;;5052486;28;19955;-59
2022/03/28 01:00:52;;;;;;;;;;;;;;;;;;5052541;28;19909;-60
2022/03/28 01:03:17;;;;;;;;;;;;;;;;;;5052051;28;20020;-60
2022/03/28 01:05:43;;;;;;;;;;;;;;;;;;5052473;28;19952;-60
2022/03/28 01:08:09;;;;;;;;;;;;;;;;;;5052447;28;20337;-60
2022/03/28 01:10:35;;;;;;;;;;;;;;;;;;5052436;28;19959;-60
2022/03/28 01:13:01;;;;;;;;;;;;;;;;;;5052356;28;20367;-60
2022/03/28 01:15:27;;;;;;;;;;;;;;;;;;5052364;28;19911;-60
2022/03/28 01:18:11;;;;;;;;;;;;;;;;;;5054635;28;19912;-59
2022/03/28 01:20:37;;;;;;;;;;;;;;;;;;5056462;28;19911;-60
2022/03/28 01:23:03;;;;;;;;;;;;;;;;;;5056442;28;20007;-59
2022/03/28 01:25:29;;;;;;;;;;;;;;;;;;5056321;28;20114;-60
2022/03/28 01:27:55;;;;;;;;;;;;;;;;;;5056360;28;20058;-60
2022/03/28 01:30:21;;;;;;;;;;;;;;;;;;5056302;28;19908;-60
2022/03/28 01:32:47;;;;;;;;;;;;;;;;;;5056467;28;19905;-60
2022/03/28 01:35:13;;;;;;;;;;;;;;;;;;5056266;28;20370;-60
2022/03/28 01:37:39;;;;;;;;;;;;;;;;;;5056174;28;19909;-60
2022/03/28 01:40:05;;;;;;;;;;;;;;;;;;5056145;28;19911;-59
2022/03/28 01:42:31;;;;;;;;;;;;;;;;;;5056090;28;20302;-60
2022/03/28 01:44:57;;;;;;;;;;;;;;;;;;5056358;28;20007;-60
2022/03/28 01:47:23;;;;;;;;;;;;;;;;;;5056045;28;20363;-46
2022/03/28 01:49:49;;;;;;;;;;;;;;;;;;5055935;28;19905;-46
2022/03/28 01:52:15;;;;;;;;;;;;;;;;;;5056189;28;20415;-47
2022/03/28 01:54:41;;;;;;;;;;;;;;;;;;5056093;28;19951;-47
2022/03/28 01:57:06;;;;;;;;;;;;;;;;;;5055835;28;19957;-47
2022/03/28 01:59:32;;;;;;;;;;;;;;;;;;5055812;28;19905;-47
2022/03/28 02:01:58;;;;;;;;;;;;;;;;;;5055742;28;19904;-47
2022/03/28 02:04:24;;;;;;;;;;;;;;;;;;5055723;28;19939;-47
2022/03/28 02:06:50;;;;;;;;;;;;;;;;;;5055625;28;20007;-60
2022/03/28 02:09:16;;;;;;;;;;;;;;;;;;5055627;28;19989;-59
2022/03/28 02:11:42;;;;;;;;;;;;;;;;;;5055567;28;19961;-59
2022/03/28 02:14:08;;;;;;;;;;;;;;;;;;5037640;28;19995;-59
2022/03/28 02:16:34;;;;;;;;;;;;;;;;;;5055818;28;19904;-60
2022/03/28 02:19:00;;;;;;;;;;;;;;;;;;5055407;28;19912;-60
2022/03/28 02:21:26;;;;;;;;;;;;;;;;;;5055445;28;19911;-61
2022/03/28 02:23:52;;;;;;;;;;;;;;;;;;5055390;28;19908;-61
2022/03/28 02:26:17;;;;;;;;;;;;;;;;;;5055306;28;20008;-61
2022/03/28 02:28:43;;;;;;;;;;;;;;;;;;5053791;28;19917;-61
2022/03/28 02:31:12;;;;;;;;;;;;;;;;;;5055260;28;19905;-61
2022/03/28 02:33:38;;;;;;;;;;;;;;;;;;5055191;28;20279;-61
2022/03/28 02:36:04;;;;;;;;;;;;;;;;;;5055158;28;19905;-61
2022/03/28 02:38:30;;;;;;;;;;;;;;;;;;5055050;28;19951;-61
2022/03/28 02:40:56;;;;;;;;;;;;;;;;;;5055094;28;19904;-60
2022/03/28 02:43:23;;;;;;;;;;;;;;;;;;5055078;28;19908;-60
2022/03/28 02:45:49;;;;;;;;;;;;;;;;;;5054967;28;19936;-60
2022/03/28 02:48:15;;;;;;;;;;;;;;;;;;5054910;28;20410;-60
2022/03/28 02:50:40;;;;;;;;;;;;;;;;;;5054849;28;19940;-61
2022/03/28 02:53:06;;;;;;;;;;;;;;;;;;5054801;28;20355;-60
2022/03/28 02:55:32;;;;;;;;;;;;;;;;;;5054782;28;19905;-61
2022/03/28 02:57:58;;;;;;;;;;;;;;;;;;5054722;28;19904;-61
2022/03/28 03:00:24;;;;;;;;;;;;;;;;;;5054821;28;19979;-61
2022/03/28 03:02:51;;;;;;;;;;;;;;;;;;5054328;28;19908;-61
2022/03/28 03:05:17;;;;;;;;;;;;;;;;;;5054654;28;19927;-61
2022/03/28 03:07:43;;;;;;;;;;;;;;;;;;5054448;28;20359;-61
2022/03/28 03:10:09;;;;;;;;;;;;;;;;;;5054448;28;19909;-60
2022/03/28 03:12:35;;;;;;;;;;;;;;;;;;5054767;28;20386;-61
2022/03/28 03:15:00;;;;;;;;;;;;;;;;;;5054405;28;20425;-61
2022/03/28 03:17:26;;;;;;;;;;;;;;;;;;5054400;28;19955;-60
2022/03/28 03:19:52;;;;;;;;;;;;;;;;;;5054338;28;19905;-60
2022/03/28 03:22:18;;;;;;;;;;;;;;;;;;5054321;28;19904;-61
2022/03/28 03:24:44;;;;;;;;;;;;;;;;;;5054216;28;20424;-61
2022/03/28 03:27:10;;;;;;;;;;;;;;;;;;5054088;28;20322;-60
2022/03/28 03:29:36;;;;;;;;;;;;;;;;;;5054138;28;19904;-61
2022/03/28 03:32:03;;;;;;;;;;;;;;;;;;5054033;28;19934;-61
2022/03/28 03:34:29;;;;;;;;;;;;;;;;;;5054125;28;19905;-60
2022/03/28 03:36:54;;;;;;;;;;;;;;;;;;5053992;28;19911;-61
2022/03/28 03:39:22;;;;;;;;;;;;;;;;;;5053711;28;19978;-61
2022/03/28 03:41:48;;;;;;;;;;;;;;;;;;5053972;28;20357;-61
2022/03/28 03:44:14;;;;;;;;;;;;;;;;;;5053827;28;20015;-61
2022/03/28 03:46:40;;;;;;;;;;;;;;;;;;5053702;28;19905;-61
2022/03/28 03:49:06;;;;;;;;;;;;;;;;;;5053684;28;19916;-61
2022/03/28 03:51:31;;;;;;;;;;;;;;;;;;5053663;28;19909;-61
2022/03/28 03:53:57;;;;;;;;;;;;;;;;;;5053708;28;19919;-61
2022/03/28 03:56:23;;;;;;;;;;;;;;;;;;5053570;28;19905;-61
2022/03/28 03:58:49;;;;;;;;;;;;;;;;;;5053521;28;19905;-61
2022/03/28 04:06:34;;;;;;;;;;;;;;;;;;5033980;28;19952;-59
2022/03/28 04:09:00;;;;;;;;;;;;;;;;;;5033839;28;19913;-60
2022/03/28 04:11:26;;;;;;;;;;;;;;;;;;5033759;28;19999;-60
2022/03/28 04:13:52;;;;;;;;;;;;;;;;;;5033471;28;19912;-60
2022/03/28 04:16:19;;;;;;;;;;;;;;;;;;5033706;28;20008;-60
2022/03/28 04:18:45;;;;;;;;;;;;;;;;;;5033480;28;20327;-61
2022/03/28 04:21:11;;;;;;;;;;;;;;;;;;5033369;28;20003;-61
2022/03/28 04:23:37;;;;;;;;;;;;;;;;;;5033251;28;19913;-61
2022/03/28 04:26:03;;;;;;;;;;;;;;;;;;5033314;28;19905;-61
2022/03/28 04:28:29;;;;;;;;;;;;;;;;;;5033479;28;20189;-60
2022/03/28 04:30:55;;;;;;;;;;;;;;;;;;5033231;28;20560;-61
2022/03/28 04:33:21;;;;;;;;;;;;;;;;;;5033189;28;19907;-61
2022/03/28 04:35:47;;;;;;;;;;;;;;;;;;5033226;28;20363;-61
2022/03/28 04:38:13;;;;;;;;;;;;;;;;;;5033167;28;19951;-61
2022/03/28 04:40:39;;;;;;;;;;;;;;;;;;5033317;28;19908;-61
2022/03/28 04:43:06;;;;;;;;;;;;;;;;;;5033309;28;19959;-61
2022/03/28 04:45:32;;;;;;;;;;;;;;;;;;5033331;28;19905;-60
2022/03/28 04:47:58;;;;;;;;;;;;;;;;;;5032919;28;19967;-61
2022/03/28 04:50:24;;;;;;;;;;;;;;;;;;5032931;28;19928;-61
2022/03/28 04:52:50;;;;;;;;;;;;;;;;;;5031964;28;20359;-59
2022/03/28 04:55:16;;;;;;;;;;;;;;;;;;5032921;28;19940;-60
2022/03/28 04:57:41;;;;;;;;;;;;;;;;;;5032929;28;19909;-61
2022/03/28 05:00:07;;;;;;;;;;;;;;;;;;5033029;28;19916;-61
2022/03/28 05:02:34;;;;;;;;;;;;;;;;;;5032660;28;20485;-61
2022/03/28 05:05:00;;;;;;;;;;;;;;;;;;5033039;28;19909;-61
2022/03/28 05:07:25;;;;;;;;;;;;;;;;;;5032626;28;20379;-60
2022/03/28 05:09:53;;;;;;;;;;;;;;;;;;5032680;28;20011;-61
2022/03/28 05:12:19;;;;;;;;;;;;;;;;;;5032723;28;19905;-61
2022/03/28 05:14:45;;;;;;;;;;;;;;;;;;5032737;28;20363;-61
2022/03/28 05:17:10;;;;;;;;;;;;;;;;;;5032582;28;19944;-61
2022/03/28 05:19:37;;;;;;;;;;;;;;;;;;5032850;28;19905;-61
2022/03/28 05:22:03;;;;;;;;;;;;;;;;;;5032784;28;20445;-61
2022/03/28 05:24:28;;;;;;;;;;;;;;;;;;5032507;28;19909;-61
2022/03/28 05:26:54;;;;;;;;;;;;;;;;;;5032410;28;20454;-61
2022/03/28 05:29:24;;;;;;;;;;;;;;;;;;5032472;28;19905;-61
2022/03/28 05:31:50;;;;;;;;;;;;;;;;;;5032551;28;19960;-61
2022/03/28 05:34:15;;;;;;;;;;;;;;;;;;5032525;28;19948;-61
2022/03/28 05:36:42;;;;;;;;;;;;;;;;;;5032518;28;20449;-61
2022/03/28 05:39:08;;;;;;;;;;;;;;;;;;5032394;28;20000;-61
2022/03/28 05:41:34;;;;;;;;;;;;;;;;;;5032367;28;19944;-61
2022/03/28 05:44:00;;;;;;;;;;;;;;;;;;5030902;28;20389;-61
2022/03/28 05:46:26;;;;;;;;;;;;;;;;;;5032325;28;19905;-61
2022/03/28 05:48:51;;;;;;;;;;;;;;;;;;5032531;28;19917;-60
2022/03/28 05:51:17;;;;;;;;;;;;;;;;;;5032650;28;20272;-61
2022/03/28 05:53:43;;;;;;;;;;;;;;;;;;5032388;28;19905;-60
2022/03/28 05:56:09;;;;;;;;;;;;;;;;;;5032311;28;20015;-59
2022/03/28 05:58:35;;;;;;;;;;;;;;;;;;5032286;28;19941;-58
2022/03/28 06:01:01;;;;;;;;;;;;;;;;;;5032134;28;19951;-58
2022/03/28 06:03:27;;;;;;;;;;;;;;;;;;5033945;28;19917;-58
2022/03/28 06:05:53;;;;;;;;;;;;;;;;;;5036143;28;20401;-58
2022/03/28 06:08:18;;;;;;;;;;;;;;;;;;5036133;28;19984;-57
2022/03/28 06:10:44;;;;;;;;;;;;;;;;;;5036307;28;19905;-57
2022/03/28 06:13:12;;;;;;;;;;;;;;;;;;5035751;28;19905;-57
2022/03/28 06:15:38;;;;;;;;;;;;;;;;;;5035660;28;20325;-58
2022/03/28 06:18:04;;;;;;;;;;;;;;;;;;5035685;28;19928;-57
2022/03/28 06:20:30;;;;;;;;;;;;;;;;;;5035676;28;19931;-57
2022/03/28 06:22:56;;;;;;;;;;;;;;;;;;5035638;28;20367;-57
2022/03/28 06:25:22;;;;;;;;;;;;;;;;;;5035600;28;19905;-57
2022/03/28 06:27:48;;;;;;;;;;;;;;;;;;5035536;28;19913;-57
2022/03/28 06:30:14;;;;;;;;;;;;;;;;;;5035432;28;20390;-57
2022/03/28 06:32:40;;;;;;;;;;;;;;;;;;5035237;28;19904;-57
2022/03/28 06:35:07;;;;;;;;;;;;;;;;;;5035493;28;19909;-57
2022/03/28 06:37:33;;;;;;;;;;;;;;;;;;5035184;28;20350;-57
2022/03/28 06:39:59;;;;;;;;;;;;;;;;;;5035136;28;19948;-58
2022/03/28 06:42:26;;;;;;;;;;;;;;;;;;5035101;28;20375;-58
2022/03/28 06:44:52;;;;;;;;;;;;;;;;;;5035307;28;20337;-59
2022/03/28 06:47:17;;;;;;;;;;;;;;;;;;5034914;28;20020;-58
2022/03/28 06:49:43;;;;;;;;;;;;;;;;;;5034915;28;20067;-58
2022/03/28 06:52:09;;;;;;;;;;;;;;;;;;5034851;28;19916;-58
2022/03/28 06:54:35;;;;;;;;;;;;;;;;;;5034850;28;19905;-59
2022/03/28 06:57:02;;;;;;;;;;;;;;;;;;5034847;28;19928;-59
2022/03/28 06:59:28;;;;;;;;;;;;;;;;;;5033544;28;20295;-59
2022/03/28 07:01:54;;;;;;;;;;;;;;;;;;5035093;28;19909;-59
2022/03/28 07:04:21;;;;;;;;;;;;;;;;;;5034925;28;20420;-59
2022/03/28 07:06:47;;;;;;;;;;;;;;;;;;5035089;28;19952;-58
2022/03/28 07:09:13;;;;;;;;;;;;;;;;;;5034678;28;19909;-57
2022/03/28 07:11:39;;;;;;;;;;;;;;;;;;5034687;28;20008;-57
2022/03/28 07:14:05;;;;;;;;;;;;;;;;;;5034438;28;19959;-58
2022/03/28 07:16:31;;;;;;;;;;;;;;;;;;5034024;28;19952;-57
2022/03/28 07:18:57;;;;;;;;;;;;;;;;;;5034847;28;20370;-56
2022/03/28 07:21:24;;;;;;;;;;;;;;;;;;5034532;28;19905;-58
2022/03/28 07:23:51;;;;;;;;;;;;;;;;;;5034405;28;19904;-57
2022/03/28 07:26:17;;;;;;;;;;;;;;;;;;5034459;28;19912;-58
2022/03/28 07:28:43;;;;;;;;;;;;;;;;;;5034253;28;19913;-57
2022/03/28 07:31:09;;;;;;;;;;;;;;;;;;5034635;28;20295;-57
2022/03/28 07:33:36;;;;;;;;;;;;;;;;;;5034272;28;19913;-57
2022/03/28 07:36:01;;;;;;;;;;;;;;;;;;5034503;28;20110;-57
2022/03/28 07:38:27;;;;;;;;;;;;;;;;;;5034250;28;20051;-57
2022/03/28 07:40:53;;;;;;;;;;;;;;;;;;5034205;28;19928;-58
2022/03/28 07:43:19;;;;;;;;;;;;;;;;;;5034108;28;19909;-55
2022/03/28 07:45:45;;;;;;;;;;;;;;;;;;5034104;28;19905;-57
2022/03/28 07:48:11;;;;;;;;;;;;;;;;;;5034182;28;20012;-56
2022/03/28 07:50:37;;;;;;;;;;;;;;;;;;5033860;28;19911;-57
2022/03/28 07:53:03;;;;;;;;;;;;;;;;;;5033929;28;19905;-57
2022/03/28 07:55:29;;;;;;;;;;;;;;;;;;5033848;28;19955;-58
2022/03/28 07:57:55;;;;;;;;;;;;;;;;;;5033808;28;20310;-58
2022/03/28 08:00:21;;;;;;;;;;;;;;;;;;5034029;28;19912;-55
2022/03/28 08:02:47;;;;;;;;;;;;;;;;;;5033446;28;20283;-57
2022/03/28 08:05:13;;;;;;;;;;;;;;;;;;5033789;28;19905;-57
2022/03/28 08:07:39;;;;;;;;;;;;;;;;;;5033779;28;20468;-56
2022/03/28 08:10:05;;;;;;;;;;;;;;;;;;5033593;28;20263;-57
2022/03/28 08:12:31;;;;;;;;;;;;;;;;;;5033557;28;19912;-56
2022/03/28 08:14:56;;;;;;;;;;;;;;;;;;5033475;28;19905;-57
2022/03/28 08:17:23;;;;;;;;;;;;;;;;;;5033864;28;19967;-57
2022/03/28 08:19:49;;;;;;;;;;;;;;;;;;5033703;28;20306;-57
2022/03/28 08:22:16;;;;;;;;;;;;;;;;;;5033388;28;19912;-57
2022/03/28 08:24:42;;;;;;;;;;;;;;;;;;5033383;28;19912;-58
2022/03/28 08:27:08;;;;;;;;;;;;;;;;;;5033168;28;20306;-58
2022/03/28 08:29:34;;;;;;;;;;;;;;;;;;5033434;28;20279;-57
2022/03/28 08:32:02;;;;;;;;;;;;;;;;;;5033220;28;19905;-58
2022/03/28 08:34:28;;;;;;;;;;;;;;;;;;5033414;28;19950;-57
2022/03/28 08:36:54;;;;;;;;;;;;;;;;;;5031894;28;19995;-56
2022/03/28 08:39:20;;;;;;;;;;;;;;;;;;5033143;28;19909;-58
2022/03/28 08:41:46;;;;;;;;;;;;;;;;;;5033008;28;20050;-58
2022/03/28 08:44:11;;;;;;;;;;;;;;;;;;5033003;28;19905;-58
2022/03/28 08:46:37;;;;;;;;;;;;;;;;;;5032981;28;19905;-58
2022/03/28 08:49:04;;;;;;;;;;;;;;;;;;5032829;28;20028;-58
2022/03/28 08:51:29;;;;;;;;;;;;;;;;;;5033251;28;19913;-59
2022/03/28 08:53:55;;;;;;;;;;;;;;;;;;5032940;28;19905;-59
2022/03/28 08:56:21;;;;;;;;;;;;;;;;;;5032944;28;19911;-48
2022/03/28 08:58:48;;;;;;;;;;;;;;;;;;5032923;28;20354;-49
2022/03/28 09:01:14;;;;;;;;;;;;;;;;;;5033051;28;20322;-50
2022/03/28 09:03:40;;;;;;;;;;;;;;;;;;5032602;28;19920;-50
2022/03/28 09:06:06;;;;;;;;;;;;;;;;;;5032750;28;19905;-50
2022/03/28 09:08:32;;;;;;;;;;;;;;;;;;5032688;28;19913;-50
2022/03/28 09:10:57;;;;;;;;;;;;;;;;;;5032661;28;19966;-55
2022/03/28 09:13:23;;;;;;;;;;;;;;;;;;5032746;28;19909;-51
2022/03/28 09:15:49;;;;;;;;;;;;;;;;;;5032586;28;19909;-50
2022/03/28 09:18:15;;;;;;;;;;;;;;;;;;5032592;28;20369;-50
2022/03/28 09:20:41;;;;;;;;;;;;;;;;;;5032539;28;20015;-50
2022/03/28 09:23:07;;;;;;;;;;;;;;;;;;5032514;28;19905;-50
2022/03/28 09:25:33;;;;;;;;;;;;;;;;;;5032834;28;19940;-49
2022/03/28 09:27:59;;;;;;;;;;;;;;;;;;5032469;28;19960;-50
2022/03/28 09:30:25;;;;;;;;;;;;;;;;;;5032569;28;19905;-51
2022/03/28 09:32:52;;;;;;;;;;;;;;;;;;5032431;28;20231;-49
2022/03/28 09:35:21;;;;;;;;;;;;;;;;;;5032747;28;19905;-49
2022/03/28 09:37:46;;;;;;;;;;;;;;;;;;5032925;28;20371;-51
2022/03/28 09:40:13;;;;;;;;;;;;;;;;;;5036318;28;19931;-49
2022/03/28 09:42:38;;;;;;;;;;;;;;;;;;5036677;28;19934;-50
2022/03/28 09:45:04;;;;;;;;;;;;;;;;;;5036353;28;19905;-50
2022/03/28 09:47:31;;;;;;;;;;;;;;;;;;5036189;28;19909;-51
2022/03/28 09:49:57;;;;;;;;;;;;;;;;;;5036280;28;19909;-51
2022/03/28 09:52:25;;;;;;;;;;;;;;;;;;5036226;28;19905;-51
2022/03/28 09:54:51;;;;;;;;;;;;;;;;;;5036086;28;20287;-51
2022/03/28 09:57:17;;;;;;;;;;;;;;;;;;5036123;28;19912;-49
2022/03/28 09:59:43;;;;;;;;;;;;;;;;;;5036131;28;19999;-50
2022/03/28 10:02:09;;;;;;;;;;;;;;;;;;5036105;28;19967;-49
2022/03/28 10:04:35;;;;;;;;;;;;;;;;;;5036022;28;19932;-50
2022/03/28 10:07:02;;;;;;;;;;;;;;;;;;5036122;28;19945;-51
2022/03/28 10:09:27;;;;;;;;;;;;;;;;;;5035973;28;20079;-53
2022/03/28 10:11:54;;;;;;;;;;;;;;;;;;5035856;28;20074;-53
2022/03/28 10:14:20;;;;;;;;;;;;;;;;;;5035899;28;20438;-53
2022/03/28 10:16:45;;;;;;;;;;;;;;;;;;5035791;28;19948;-54
2022/03/28 10:19:11;;;;;;;;;;;;;;;;;;5035728;28;20295;-50
2022/03/28 10:21:37;;;;;;;;;;;;;;;;;;5035671;28;19912;-52
2022/03/28 10:24:03;;;;;;;;;;;;;;;;;;5035647;28;19958;-54
2022/03/28 10:26:29;;;;;;;;;;;;;;;;;;5035715;28;20390;-54
2022/03/28 10:28:55;;;;;;;;;;;;;;;;;;5035465;28;19913;-59
2022/03/28 10:31:21;;;;;;;;;;;;;;;;;;5035461;28;19912;-59
2022/03/28 10:33:47;;;;;;;;;;;;;;;;;;5035689;28;19928;-59
2022/03/28 10:36:12;;;;;;;;;;;;;;;;;;5035636;28;20279;-59
2022/03/28 10:38:38;;;;;;;;;;;;;;;;;;5035355;28;19905;-59
2022/03/28 10:41:07;;;;;;;;;;;;;;;;;;5035248;28;19967;-59
2022/03/28 10:43:33;;;;;;;;;;;;;;;;;;5035546;28;19958;-58
2022/03/28 10:45:59;;;;;;;;;;;;;;;;;;5035269;28;19909;-59
2022/03/28 10:48:25;;;;;;;;;;;;;;;;;;5035049;28;20371;-60
2022/03/28 10:50:51;;;;;;;;;;;;;;;;;;5033840;28;19909;-60
2022/03/28 10:53:17;;;;;;;;;;;;;;;;;;5035028;28;19905;-60
2022/03/28 10:55:43;;;;;;;;;;;;;;;;;;5035309;28;20338;-60
2022/03/28 10:58:10;;;;;;;;;;;;;;;;;;5034902;28;20003;-60
2022/03/28 11:00:35;;;;;;;;;;;;;;;;;;5035160;28;20054;-58
2022/03/28 11:03:01;;;;;;;;;;;;;;;;;;5034957;28;20066;-57
2022/03/28 11:05:28;;;;;;;;;;;;;;;;;;5034892;28;19912;-58
2022/03/28 11:07:53;;;;;;;;;;;;;;;;;;5034826;28;20191;-57
2022/03/28 11:10:21;;;;;;;;;;;;;;;;;;5034721;28;20210;-57
2022/03/28 11:12:51;;;;;;;;;;;;;;;;;;5034938;28;19905;-57
2022/03/28 11:15:18;;;;;;;;;;;;;;;;;;5034946;28;19912;-56
2022/03/28 11:17:44;;;;;;;;;;;;;;;;;;5034554;28;20352;-56
2022/03/28 11:20:11;;;;;;;;;;;;;;;;;;5034529;28;19905;-55
2022/03/28 11:22:36;;;;;;;;;;;;;;;;;;5034614;28;20408;-57
2022/03/28 11:25:03;;;;;;;;;;;;;;;;;;5034804;28;19995;-57
2022/03/28 11:27:28;;;;;;;;;;;;;;;;;;5034336;28;20362;-57
2022/03/28 11:29:54;;;;;;;;;;;;;;;;;;5034372;28;19913;-56
2022/03/28 11:32:20;;;;;;;;;;;;;;;;;;5034348;28;19928;-56
2022/03/28 11:34:46;;;;;;;;;;;;;;;;;;5034512;28;20302;-58
2022/03/28 11:37:12;;;;;;;;;;;;;;;;;;5034246;28;19956;-57
2022/03/28 11:39:38;;;;;;;;;;;;;;;;;;5034248;28;19912;-56
2022/03/28 11:42:04;;;;;;;;;;;;;;;;;;5034261;28;20413;-57
2022/03/28 11:44:29;;;;;;;;;;;;;;;;;;5034090;28;19916;-58
2022/03/28 11:46:57;;;;;;;;;;;;;;;;;;5033960;28;20131;-57
2022/03/28 11:49:23;;;;;;;;;;;;;;;;;;5034113;28;19963;-57
2022/03/28 11:51:49;;;;;;;;;;;;;;;;;;5033946;28;20303;-57
2022/03/28 11:54:16;;;;;;;;;;;;;;;;;;5033923;28;20000;-57
2022/03/28 11:59:27;;;;;;;;;;;;;;;;;;5033897;28;19966;-57
2022/03/28 12:01:53;;;;;;;;;;;;;;;;;;5033388;28;19916;-57
2022/03/28 12:04:19;;;;;;;;;;;;;;;;;;5033769;28;19999;-57
2022/03/28 12:06:45;;;;;;;;;;;;;;;;;;5034001;28;19905;-57
2022/03/28 12:09:11;;;;;;;;;;;;;;;;;;5033679;28;19920;-56
2022/03/28 12:11:37;;;;;;;;;;;;;;;;;;5033349;28;20378;-55
2022/03/28 12:14:03;;;;;;;;;;;;;;;;;;5033524;28;19952;-56
2022/03/28 12:16:29;;;;;;;;;;;;;;;;;;5033559;28;19916;-57
2022/03/28 12:18:58;;;;;;;;;;;;;;;;;;5033483;28;19905;-58
2022/03/28 12:21:24;;;;;;;;;;;;;;;;;;5033598;28;19951;-58
2022/03/28 12:23:50;;;;;;;;;;;;;;;;;;5033385;28;19991;-58
2022/03/28 12:26:16;;;;;;;;;;;;;;;;;;5033392;28;19912;-58
2022/03/28 12:28:45;;;;;;;;;;;;;;;;;;5033434;28;19979;-58
2022/03/28 12:31:11;;;;;;;;;;;;;;;;;;5032029;28;19912;-59
2022/03/28 12:33:38;;;;;;;;;;;;;;;;;;5033029;28;19905;-58
2022/03/28 12:36:04;;;;;;;;;;;;;;;;;;5033204;28;19912;-59
2022/03/28 12:38:30;;;;;;;;;;;;;;;;;;5033086;28;19906;-59
2022/03/28 12:40:56;;;;;;;;;;;;;;;;;;5033371;28;20290;-58
2022/03/28 12:43:27;;;;;;;;;;;;;;;;;;5033199;28;19977;-58
2022/03/28 12:45:53;;;;;;;;;;;;;;;;;;5033226;28;19912;-59
2022/03/28 12:48:19;;;;;;;;;;;;;;;;;;5033166;28;19913;-59
2022/03/28 12:50:45;;;;;;;;;;;;;;;;;;5033010;28;19909;-58
2022/03/28 12:53:11;;;;;;;;;;;;;;;;;;5032959;28;19959;-58
2022/03/28 12:55:37;;;;;;;;;;;;;;;;;;5032944;28;20001;-58
2022/03/28 12:58:03;;;;;;;;;;;;;;;;;;5032843;28;19944;-58
2022/03/28 13:00:29;;;;;;;;;;;;;;;;;;5032865;28;19909;-58
2022/03/28 13:03:01;;;;;;;;;;;;;;;;;;5032552;28;19940;-58
2022/03/28 13:05:27;;;;;;;;;;;;;;;;;;5033081;28;20274;-58
2022/03/28 13:07:53;;;;;;;;;;;;;;;;;;5032852;28;20011;-58
2022/03/28 13:10:20;;;;;;;;;;;;;;;;;;5032733;28;19928;-58
2022/03/28 13:12:47;;;;;;;;;;;;;;;;;;5032172;28;19905;-58
2022/03/28 13:15:13;;;;;;;;;;;;;;;;;;5032998;28;19950;-47
2022/03/28 13:17:43;;;;;;;;;;;;;;;;;;5032622;28;19995;-47
2022/03/28 13:20:09;;;;;;;;;;;;;;;;;;5032649;28;19909;-47
2022/03/28 13:22:35;;;;;;;;;;;;;;;;;;5032581;28;19912;-47
2022/03/28 13:25:01;;;;;;;;;;;;;;;;;;5033001;28;19913;-48
2022/03/28 13:30:12;;;;;;;;;;;;;;;;;;5032606;28;19916;-47
2022/03/28 13:32:39;;;;;;;;;;;;;;;;;;5032567;28;20290;-47
2022/03/28 13:35:05;;;;;;;;;;;;;;;;;;5032559;28;19905;-47
2022/03/28 13:37:31;;;;;;;;;;;;;;;;;;5032649;28;20282;-47
2022/03/28 13:39:57;;;;;;;;;;;;;;;;;;5032439;28;20385;-47
2022/03/28 13:42:23;;;;;;;;;;;;;;;;;;5032393;28;19967;-48
2022/03/28 13:44:49;;;;;;;;;;;;;;;;;;5032336;28;19984;-47
2022/03/28 13:47:15;;;;;;;;;;;;;;;;;;5032228;28;20271;-48
2022/03/28 13:49:41;;;;;;;;;;;;;;;;;;5032442;28;19909;-47
2022/03/28 13:52:07;;;;;;;;;;;;;;;;;;5032690;28;19905;-48
2022/03/28 13:54:33;;;;;;;;;;;;;;;;;;5032314;28;19905;-47
2022/03/28 13:56:58;;;;;;;;;;;;;;;;;;5032583;28;19905;-47
2022/03/28 13:59:24;;;;;;;;;;;;;;;;;;5032251;28;20394;-48
2022/03/28 14:01:50;;;;;;;;;;;;;;;;;;5032136;28;19937;-49
2022/03/28 14:04:16;;;;;;;;;;;;;;;;;;5032166;28;19912;-48
2022/03/28 14:06:42;;;;;;;;;;;;;;;;;;5032187;28;19905;-47
2022/03/28 14:09:09;;;;;;;;;;;;;;;;;;5032123;28;19959;-47
2022/03/28 14:11:35;;;;;;;;;;;;;;;;;;5032162;28;19910;-48
2022/03/28 14:14:01;;;;;;;;;;;;;;;;;;5032103;28;19982;-48
2022/03/28 14:16:27;;;;;;;;;;;;;;;;;;5032097;28;19909;-48
2022/03/28 14:18:54;;;;;;;;;;;;;;;;;;5032246;28;19905;-47
2022/03/28 14:21:20;;;;;;;;;;;;;;;;;;5031908;28;20354;-47
2022/03/28 14:23:46;;;;;;;;;;;;;;;;;;5032627;28;19905;-48
2022/03/28 14:26:20;;;;;;;;;;;;;;;;;;5035756;28;19905;-47
2022/03/28 14:28:46;;;;;;;;;;;;;;;;;;5035592;28;19913;-58
2022/03/28 14:31:12;;;;;;;;;;;;;;;;;;5035444;28;19905;-58
2022/03/28 14:33:38;;;;;;;;;;;;;;;;;;5035541;28;19905;-59
2022/03/28 14:36:04;;;;;;;;;;;;;;;;;;5035351;28;19912;-58
2022/03/28 14:38:29;;;;;;;;;;;;;;;;;;5035357;28;19953;-58
2022/03/28 14:40:56;;;;;;;;;;;;;;;;;;5035308;28;20385;-58
2022/03/28 14:43:22;;;;;;;;;;;;;;;;;;5035293;28;19905;-58
2022/03/28 14:48:32;;;;;;;;;;;;;;;;;;5035088;28;19920;-58
2022/03/28 14:50:58;;;;;;;;;;;;;;;;;;5035018;28;19996;-58
2022/03/28 14:53:24;;;;;;;;;;;;;;;;;;5034888;28;19992;-57
2022/03/28 14:55:50;;;;;;;;;;;;;;;;;;5034869;28;19925;-58
2022/03/28 14:58:16;;;;;;;;;;;;;;;;;;5034756;28;19909;-58
2022/03/28 15:00:42;;;;;;;;;;;;;;;;;;5034850;28;19992;-57
2022/03/28 15:03:08;;;;;;;;;;;;;;;;;;5035032;28;19960;-58
2022/03/28 15:05:35;;;;;;;;;;;;;;;;;;5034841;28;19911;-57
2022/03/28 15:08:00;;;;;;;;;;;;;;;;;;5034630;28;19920;-57
2022/03/28 15:10:29;;;;;;;;;;;;;;;;;;5034740;28;19905;-56
2022/03/28 15:12:55;;;;;;;;;;;;;;;;;;5034754;28;19912;-57
2022/03/28 15:15:21;;;;;;;;;;;;;;;;;;5034618;28;20000;-57
2022/03/28 15:17:47;;;;;;;;;;;;;;;;;;5034642;28;19912;-57
2022/03/28 15:20:14;;;;;;;;;;;;;;;;;;5034535;28;20003;-58
2022/03/28 15:22:40;;;;;;;;;;;;;;;;;;5034779;28;19987;-57
2022/03/28 15:25:06;;;;;;;;;;;;;;;;;;5034201;28;20362;-58
2022/03/28 15:27:32;;;;;;;;;;;;;;;;;;5034191;28;20015;-58
2022/03/28 15:29:58;;;;;;;;;;;;;;;;;;5033064;28;20367;-58
2022/03/28 15:32:24;;;;;;;;;;;;;;;;;;5034248;28;20070;-58
2022/03/28 15:34:50;;;;;;;;;;;;;;;;;;5034638;28;19909;-58
2022/03/28 15:37:16;;;;;;;;;;;;;;;;;;5033683;28;19912;-58
2022/03/28 15:39:41;;;;;;;;;;;;;;;;;;5034208;28;20359;-58
2022/03/28 15:42:08;;;;;;;;;;;;;;;;;;5034132;28;19959;-57
2022/03/28 15:44:34;;;;;;;;;;;;;;;;;;5034117;28;19909;-58
2022/03/28 15:47:00;;;;;;;;;;;;;;;;;;5034204;28;20020;-58
2022/03/28 15:49:26;;;;;;;;;;;;;;;;;;5033982;28;19999;-58
2022/03/28 15:51:52;;;;;;;;;;;;;;;;;;5033821;28;20290;-57
2022/03/28 15:54:22;;;;;;;;;;;;;;;;;;5033795;28;19905;-57
2022/03/28 15:56:48;;;;;;;;;;;;;;;;;;5033797;28;19996;-57
2022/03/28 15:59:14;;;;;;;;;;;;;;;;;;5033666;28;20355;-47
2022/03/28 16:01:40;;;;;;;;;;;;;;;;;;5033519;28;19948;-47
2022/03/28 16:04:06;;;;;;;;;;;;;;;;;;5033642;28;19913;-49
2022/03/28 16:06:32;;;;;;;;;;;;;;;;;;5033377;28;19905;-49
2022/03/28 16:08:58;;;;;;;;;;;;;;;;;;5033386;28;19967;-48
2022/03/28 16:11:24;;;;;;;;;;;;;;;;;;5033344;28;20398;-48
2022/03/28 16:13:50;;;;;;;;;;;;;;;;;;5033590;28;19905;-48
2022/03/28 16:16:16;;;;;;;;;;;;;;;;;;5033458;28;19904;-49
2022/03/28 16:18:42;;;;;;;;;;;;;;;;;;5033498;28;19909;-49
2022/03/28 16:21:08;;;;;;;;;;;;;;;;;;5033403;28;20439;-48
2022/03/28 16:23:34;;;;;;;;;;;;;;;;;;5033326;28;19980;-47
2022/03/28 16:26:00;;;;;;;;;;;;;;;;;;5033303;28;19948;-48
2022/03/28 16:28:27;;;;;;;;;;;;;;;;;;5033496;28;20274;-48
2022/03/28 16:30:53;;;;;;;;;;;;;;;;;;5033304;28;19995;-48
2022/03/28 16:33:19;;;;;;;;;;;;;;;;;;5033591;28;19955;-48
2022/03/28 16:35:44;;;;;;;;;;;;;;;;;;5033265;28;19905;-48
2022/03/28 16:38:10;;;;;;;;;;;;;;;;;;5033454;28;19927;-47
2022/03/28 16:40:37;;;;;;;;;;;;;;;;;;5033177;28;19912;-48
2022/03/28 16:43:03;;;;;;;;;;;;;;;;;;5033157;28;19912;-49
2022/03/28 16:45:29;;;;;;;;;;;;;;;;;;5033089;28;19909;-47
2022/03/28 16:47:55;;;;;;;;;;;;;;;;;;5032060;28;20046;-48
2022/03/28 16:50:22;;;;;;;;;;;;;;;;;;5032955;28;19905;-48